Terminal Aerodrome Forecast
Issued by NWS

Home | Current Version | Previous Version | Text Only | Print | Product List | Glossary On
Versions: 1 2 3 4 5 6 7 8 9 10 11 12
000
FTUS42 KGSP 242320
TAFAND
TAF
KAND 242320Z 2500/2524 13003KT P6SM SKC
     FM251300 02003KT P6SM FEW200
     FM251800 09004KT P6SM FEW250 PROB30 2521/2524 4SM -TSRA
      BKN060CB=

USA.gov is the U.S. government's official web portal to all federal, state and local government web resources and services.